DO9LL-1 Weather Reports


Display with metric or nautical units.
time (UTC)temp
F
wind
direction
speed
MPH
gust
MPH
rain 1hr
in
rain 24hr
in
rain mn
in
humidity
%
barometer
mb
20240522205036 61 59 1.0 3.0 0.00 0.08 0.05 72 1010.1
20240522204033 61 65 3.0 6.0 0.00 0.08 0.05 72 1010.0
20240522203031 61 90 1.0 5.0 0.00 0.08 0.05 72 1009.9
20240522202028 61 0.0 0.0 0.00 0.08 0.05 72 1009.9
20240522201026 62 38 1.0 4.0 0.00 0.09 0.05 72 1009.8
20240522200024 62 0.0 2.0 0.00 0.09 0.05 72 1009.6
20240522195022 62 0.0 1.0 0.00 0.09 0.05 72 1009.6
20240522194019 62 0.0 0.0 0.00 0.09 0.05 71 1009.4
20240522193016 63 0.0 0.0 0.00 0.09 0.05 71 1009.3
20240522192114 64 0.0 1.0 0.00 0.11 0.05 67 1009.3
20240522191112 64 0.0 0.0 0.00 0.11 0.05 66 1009.3
20240522190209 64 0.0 0.0 0.00 0.12 0.05 66 1009.2
20240522185147 64 0.0 0.0 0.00 0.12 0.05 65 1009.3
20240522184104 65 90 0.0 3.0 0.00 0.12 0.05 64 1009.1
20240522183102 65 90 1.0 3.0 0.00 0.12 0.05 65 1009.0
20240522182059 65 0.0 0.0 0.00 0.12 0.05 64 1008.9
20240522181057 65 0.0 0.0 0.00 0.13 0.05 63 1008.9
20240522180055 66 180 0.0 2.0 0.00 0.13 0.05 63 1008.9
20240522175052 66 0.0 1.0 0.00 0.14 0.05 64 1008.8
20240522174050 66 45 0.0 3.0 0.00 0.14 0.05 63 1008.7
20240522173047 66 90 1.0 4.0 0.00 0.14 0.05 62 1008.7
20240522172045 67 176 2.0 4.0 0.00 0.14 0.05 62 1008.6
20240522171043 67 193 2.0 4.0 0.00 0.14 0.05 61 1008.5
20240522170040 66 157 2.0 5.0 0.00 0.14 0.05 62 1008.6
20240522165038 66 165 3.0 6.0 0.00 0.14 0.05 62 1008.5
20240522164035 67 94 4.0 6.0 0.00 0.14 0.05 62 1008.5
20240522163033 67 180 3.0 4.0 0.00 0.14 0.05 62 1008.5
20240522162050 66 143 3.0 4.0 0.00 0.14 0.05 61 1008.5
20240522161028 66 191 4.0 6.0 0.00 0.14 0.05 62 1008.5
20240522160026 66 163 4.0 6.0 0.00 0.14 0.05 60 1008.5
20240522155023 68 116 4.0 6.0 0.00 0.14 0.05 61 1008.6
20240522154021 67 162 6.0 11.0 0.00 0.14 0.05 62 1008.6
20240522153019 68 186 3.0 4.0 0.00 0.14 0.05 63 1008.6
20240522151112 66 191 3.0 6.0 0.00 0.14 0.05 66 1008.7
20240522150130 65 107 3.0 4.0 0.00 0.14 0.05 70 1008.7
20240522145108 63 104 4.0 8.0 0.00 0.14 0.05 75 1008.7
20240522144106 61 173 2.0 4.0 0.00 0.14 0.05 74 1008.8
20240522143103 61 128 4.0 7.0 0.00 0.14 0.05 73 1008.8
20240522142101 62 175 4.0 6.0 0.00 0.14 0.05 72 1008.9
20240522141059 64 167 4.0 8.0 0.00 0.14 0.05 67 1008.9
20240522140056 65 186 3.0 8.0 0.00 0.14 0.05 65 1008.7
20240522135113 66 182 3.0 9.0 0.00 0.14 0.05 66 1008.6
20240522134051 65 182 3.0 5.0 0.00 0.14 0.05 66 1008.5
20240522133049 65 211 4.0 7.0 0.00 0.14 0.05 66 1008.5
20240522132046 66 179 6.0 10.0 0.00 0.14 0.05 66 1008.3
20240522131044 65 175 3.0 6.0 0.00 0.14 0.05 67 1008.3
20240522130041 65 199 4.0 7.0 0.00 0.14 0.05 68 1008.3
20240522125039 64 174 3.0 8.0 0.00 0.14 0.05 71 1008.2
20240522124036 64 119 3.0 5.0 0.00 0.14 0.05 70 1008.1
20240522123033 64 162 3.0 4.0 0.00 0.14 0.05 70 1008.1
20240522122031 64 99 4.0 7.0 0.00 0.14 0.05 69 1007.9
20240522121029 64 126 5.0 11.0 0.00 0.14 0.05 71 1008.0
20240522120026 64 133 2.0 5.0 0.00 0.14 0.05 73 1007.9
20240522115023 62 190 3.0 7.0 0.00 0.14 0.05 75 1007.8
20240522114021 62 162 3.0 4.0 0.00 0.14 0.05 75 1007.7
20240522113019 62 141 4.0 6.0 0.00 0.14 0.05 74 1007.6
20240522112015 63 218 4.0 7.0 0.00 0.14 0.05 72 1007.6
20240522111113 64 200 5.0 7.0 0.00 0.14 0.05 68 1007.4
20240522110110 64 65 4.0 8.0 0.00 0.14 0.05 72 1007.4
20240522105107 62 191 3.0 4.0 0.00 0.14 0.05 74 1007.4
20240522104105 62 149 3.0 8.0 0.00 0.14 0.05 73 1007.4
20240522103102 63 175 3.0 4.0 0.00 0.14 0.05 73 1007.2
20240522102100 64 123 3.0 8.0 0.00 0.14 0.05 71 1007.1
20240522101118 62 164 3.0 8.0 0.00 0.14 0.05 75 1007.1
20240522100121 61 191 3.0 6.0 0.00 0.14 0.05 76 1007.1
20240522095053 61 186 3.0 7.0 0.00 0.14 0.05 76 1007.0
20240522094050 61 163 4.0 8.0 0.00 0.14 0.05 76 1006.9
20240522093048 62 101 3.0 7.0 0.00 0.14 0.05 78 1006.8
20240522092045 61 168 4.0 7.0 0.00 0.14 0.05 79 1006.8
20240522091103 61 171 4.0 10.0 0.00 0.14 0.05 80 1006.7
20240522090101 61 185 4.0 8.0 0.00 0.14 0.05 81 1006.5
20240522085038 60 182 4.0 6.0 0.00 0.14 0.05 83 1006.4
20240522084035 60 209 3.0 4.0 0.00 0.15 0.05 84 1006.4
20240522083033 60 187 4.0 8.0 0.00 0.15 0.05 84 1006.3
20240522082050 61 175 4.0 8.0 0.00 0.15 0.05 85 1006.2
20240522081028 60 171 3.0 9.0 0.00 0.15 0.05 87 1006.1
20240522080026 60 210 4.0 6.0 0.00 0.15 0.05 88 1006.0
20240522075023 60 188 4.0 6.0 0.00 0.15 0.05 88 1005.8
20240522074021 60 42 6.0 10.0 0.00 0.15 0.05 88 1005.7
20240522073018 60 66 4.0 9.0 0.00 0.15 0.05 88 1005.6
20240522072016 60 108 4.0 6.0 0.00 0.15 0.05 89 1005.7
20240522071114 60 74 4.0 6.0 0.00 0.15 0.05 90 1005.6
20240522070111 60 170 4.0 6.0 0.00 0.15 0.05 91 1005.5
20240522065108 59 61 5.0 9.0 0.00 0.15 0.05 92 1005.2
20240522064106 59 77 4.0 7.0 0.00 0.15 0.05 93 1005.2
20240522063103 59 67 4.0 10.0 0.00 0.15 0.05 94 1005.2
20240522062101 59 92 5.0 8.0 0.00 0.15 0.05 95 1005.2
20240522061059 59 154 3.0 5.0 0.00 0.15 0.05 96 1005.1
20240522060056 59 118 5.0 11.0 0.00 0.15 0.05 97 1005.0
20240522055114 59 144 2.0 5.0 0.00 0.15 0.05 98 1004.8
20240522054111 58 180 4.0 8.0 0.00 0.15 0.05 99 1004.8
20240522053049 58 75 4.0 8.0 0.00 0.15 0.05 99 1004.6
20240522052046 58 152 2.0 7.0 0.00 0.15 0.05 99 1004.5
20240522051044 58 45 1.0 6.0 0.00 0.15 0.05 99 1004.4
20240522050102 58 0.0 1.0 0.00 0.15 0.05 99 1004.2
20240522045039 58 135 0.0 2.0 0.00 0.15 0.05 99 1004.1
20240522044037 58 164 1.0 4.0 0.00 0.15 0.05 99 1003.9
20240521235046 60 157 3.0 5.0 0.01 0.14 0.04 99 1002.5
20240521234023 60 90 0.0 2.0 0.01 0.14 0.04 99 1002.6
20240521233021 60 0.0 0.0 0.01 0.14 0.04 99 1002.4
20240521232038 60 0.0 0.0 0.02 0.14 0.04 99 1002.6
20240521231016 60 0.0 0.0 0.02 0.14 0.04 98 1002.7
20240521230113 60 0.0 2.0 0.01 0.13 0.02 98 1002.6
20240521225131 60 0.0 2.0 0.02 0.13 0.02 98 1002.7
20240521224109 60 0.0 0.0 0.02 0.13 0.02 98 1002.7
20240521223106 59 90 1.0 3.0 0.05 0.13 0.02 97 1002.9
20240521222124 59 82 3.0 7.0 0.05 0.12 0.01 97 1002.8
20240521221101 59 90 1.0 2.0 0.05 0.12 0.01 96 1002.9
20240521220119 59 0.0 1.0 0.05 0.12 0.01 96 1003.0
20240521215057 59 0.0 1.0 0.04 0.11 0.11 96 1003.2
20240521214055 59 158 0.0 3.0 0.04 0.11 0.11 96 1003.2
20240521213052 59 180 0.0 2.0 0.01 0.08 0.08 95 1003.2
20240521212049 59 125 1.0 3.0 0.00 0.07 0.07 95 1003.4
20240521211047 59 180 1.0 4.0 0.01 0.07 0.07 95 1003.5
20240521210105 59 225 1.0 3.0 0.01 0.07 0.07 94 1003.8